Latest Weather Observations for Flinders Island Airport

IDT60801

Issued at 4:01 pm EST Sunday 5 July 2015 (issued every 30 minutes, with the page automatically refreshed every 10 minutes)

About weather observations | Map of weather stations | Latest weather observations for TAS | Other Formats
Station Details ID: 099005 Name: FLINDERS ISLAND AIRPORT Lat: -40.09 Lon: 148.00 Height: 9.0 m
Data from the previous 72 hours. | See also: Recent months at Flinders Island Airport
Date/Time
EST
Temp
°C
App
Temp
°C
Dew
Point
Rel
Hum
%
Delta-T
°C
Wind Press
QNH
hPa
Press
MSL
hPa
Rain
since 9 am
mm
Dir
 
Spd
km/h
Gust
km/h
Spd
kts
Gust
kts
05/04:00pm 12.4 5.8 10.0 85 1.2 WNW 35 48 19 26 1014.3 1014.4 0.2
05/03:30pm 12.5 6.3 9.9 84 1.3 WNW 33 48 18 26 1014.1 1014.2 0.2
05/03:00pm 12.4 6.2 10.0 85 1.2 WNW 33 48 18 26 1014.1 1014.2 0.2
05/02:30pm 12.2 6.1 10.3 88 1.0 WNW 33 44 18 24 1014.1 1014.2 0.2
05/02:16pm 12.1 5.6 10.3 89 0.9 WNW 35 44 19 24 1014.2 1014.3 0.2
05/02:00pm 12.2 6.1 10.3 88 1.0 WNW 33 46 18 25 1014.2 1014.3 0.2
05/01:30pm 12.1 6.0 10.5 90 0.8 WNW 33 48 18 26 1014.1 1014.2 0.2
05/01:00pm 11.9 5.8 10.5 91 0.7 WNW 33 44 18 24 1014.5 1014.6 0.2
05/12:30pm 11.9 5.7 10.1 89 0.9 WNW 33 43 18 23 1014.7 1014.8 0.0
05/12:00pm 12.2 6.0 10.1 87 1.1 WNW 33 48 18 26 1015.2 1015.3 0.0
05/11:30am 12.3 6.4 10.4 88 1.0 WNW 32 44 17 24 1015.5 1015.6 0.0
05/11:00am 12.3 6.8 10.4 88 1.0 WNW 30 43 16 23 1015.9 1016.0 0.0
05/10:30am 12.4 6.8 10.3 87 1.1 WNW 30 37 16 20 1016.3 1016.4 0.0
05/10:00am 12.5 6.6 10.4 87 1.1 WNW 32 39 17 21 1016.3 1016.4 0.0
05/09:30am 12.4 6.9 10.5 88 1.0 WNW 30 39 16 21 1016.3 1016.4 0.0
05/09:00am 12.4 6.9 10.6 89 0.9 WNW 30 41 16 22 1016.1 1016.2 1.6
05/08:30am 12.1 6.5 10.3 89 0.9 WNW 30 39 16 21 1016.0 1016.1 1.6
05/08:00am 12.0 6.1 10.6 91 0.7 WNW 32 41 17 22 1016.0 1016.1 1.6
05/07:30am 12.0 6.2 10.9 93 0.6 WNW 32 43 17 23 1015.8 1015.9 1.6
05/07:00am 11.9 6.9 11.0 94 0.5 WNW 28 37 15 20 1015.7 1015.8 1.6
05/06:30am 11.9 6.6 11.1 95 0.4 WNW 30 37 16 20 1015.7 1015.8 1.6
05/06:29am 11.9 6.6 11.1 95 0.4 WNW 30 37 16 20 1015.7 1015.8 1.6
05/06:12am 11.8 7.2 11.0 95 0.4 WNW 26 35 14 19 1015.6 1015.7 1.4
05/06:00am 11.9 6.9 11.0 94 0.5 WNW 28 35 15 19 1015.7 1015.7 1.4
05/05:30am 12.1 6.8 11.2 94 0.5 WNW 30 41 16 22 1015.5 1015.6 1.4
05/05:00am 12.1 7.5 11.2 94 0.5 WNW 26 37 14 20 1015.5 1015.6 1.4
05/04:30am 11.9 6.1 10.8 93 0.6 W 32 41 17 22 1015.6 1015.7 1.4
05/04:00am 11.8 7.2 10.9 94 0.5 WNW 26 32 14 17 1015.8 1015.9 1.4
05/03:30am 12.0 7.1 11.2 95 0.4 W 28 37 15 20 1015.8 1015.9 1.4
05/03:00am 11.9 7.7 11.1 95 0.4 WNW 24 32 13 17 1016.0 1016.1 1.2
05/02:30am 12.0 7.8 11.2 95 0.4 W 24 32 13 17 1016.2 1016.3 1.0
05/02:14am 11.9 7.3 11.0 94 0.5 W 26 33 14 18 1016.2 1016.3 1.0
05/02:01am 11.9 7.2 10.8 93 0.6 W 26 33 14 18 1016.2 1016.3 1.0
05/02:00am 11.9 7.2 10.8 93 0.6 WNW 26 33 14 18 1016.2 1016.3 1.0
05/01:56am 12.0 7.7 10.7 92 0.7 WNW 24 33 13 18 1016.2 1016.3 0.8
05/01:30am 12.0 8.1 10.7 92 0.7 W 22 28 12 15 1016.1 1016.2 0.6
05/01:00am 12.1 8.6 10.8 92 0.7 W 20 28 11 15 1016.2 1016.3 0.6
05/12:30am 11.9 7.9 10.6 92 0.7 W 22 30 12 16 1016.3 1016.4 0.6
05/12:00am 11.8 8.2 10.4 91 0.7 W 20 24 11 13 1016.4 1016.5 0.6
 
Date/Time
EST
Temp
°C
App
Temp
°C
Dew
Point
Rel
Hum
%
Delta-T
°C
Wind Press
QNH
hPa
Press
MSL
hPa
Rain
since 9 am
mm
Dir
 
Spd
km/h
Gust
km/h
Spd
kts
Gust
kts
04/11:30pm 11.8 8.3 10.2 90 0.8 WNW 19 24 10 13 1016.3 1016.4 0.6
04/11:00pm 11.8 8.1 10.0 89 0.9 W 20 30 11 16 1016.7 1016.8 0.6
04/10:30pm 12.0 8.2 9.7 86 1.2 WNW 20 30 11 16 1016.6 1016.7 0.6
04/10:00pm 11.9 7.9 10.3 90 0.8 WNW 22 28 12 15 1016.8 1016.9 0.6
04/09:30pm 12.1 8.2 10.7 91 0.7 W 22 30 12 16 1016.8 1016.9 0.6
04/09:00pm 12.2 8.3 10.8 91 0.7 WNW 22 28 12 15 1016.6 1016.7 0.6
04/08:30pm 12.2 8.7 10.9 92 0.7 W 20 32 11 17 1016.7 1016.8 0.6
04/08:00pm 12.1 7.9 11.0 93 0.6 WNW 24 30 13 16 1016.5 1016.6 0.6
04/07:30pm 12.1 7.9 11.0 93 0.6 WNW 24 32 13 17 1016.5 1016.6 0.6
04/07:00pm 12.1 7.4 10.8 92 0.7 W 26 32 14 17 1016.2 1016.3 0.6
04/06:30pm 12.1 7.4 10.7 91 0.7 WNW 26 32 14 17 1016.0 1016.1 0.6
04/06:00pm 12.0 8.1 10.7 92 0.7 WNW 22 30 12 16 1015.8 1015.9 0.6
04/05:30pm 12.0 7.7 10.7 92 0.7 WNW 24 32 13 17 1015.5 1015.6 0.6
04/05:00pm 12.1 7.4 10.8 92 0.7 WNW 26 32 14 17 1015.3 1015.4 0.6
04/04:30pm 12.6 6.9 11.2 91 0.7 WNW 32 43 17 23 1015.3 1015.4 0.6
04/04:09pm 12.8 6.9 11.2 90 0.8 WNW 33 39 18 21 1015.3 1015.4 0.6
04/04:00pm 12.9 7.0 11.1 89 0.9 W 33 44 18 24 1015.3 1015.4 0.6
04/03:30pm 13.0 7.3 11.1 88 1.0 W 32 41 17 22 1015.2 1015.3 0.6
04/03:00pm 13.1 7.4 11.0 87 1.1 W 32 41 17 22 1015.0 1015.1 0.6
04/02:59pm 13.1 7.4 11.0 87 1.1 W 32 41 17 22 1015.0 1015.1 0.6
04/02:47pm 13.1 7.2 11.0 87 1.1 W 33 41 18 22 1014.9 1015.0 0.6
04/02:46pm 13.1 7.2 11.0 87 1.1 W 33 41 18 22 1014.9 1015.0 0.6
04/02:30pm 13.1 6.7 10.8 86 1.2 W 35 46 19 25 1014.8 1014.9 0.6
04/02:22pm 13.0 6.6 10.7 86 1.2 W 35 43 19 23 1014.8 1014.9 0.6
04/02:20pm 13.1 6.7 10.8 86 1.2 W 35 43 19 23 1014.8 1014.9 0.6
04/02:08pm 13.2 7.3 11.1 87 1.1 W 33 43 18 23 1014.8 1014.9 0.6
04/02:00pm 13.3 7.0 11.2 87 1.1 W 35 48 19 26 1014.7 1014.8 0.6
04/01:59pm 13.3 7.0 11.2 87 1.1 W 35 48 19 26 1014.7 1014.8 0.6
04/01:36pm 13.3 7.1 11.4 88 1.0 W 35 54 19 29 1014.6 1014.7 0.6
04/01:30pm 13.0 6.7 11.1 88 1.0 W 35 46 19 25 1014.6 1014.7 0.6
04/01:00pm 13.1 6.9 11.3 89 1.0 W 35 52 19 28 1014.8 1014.9 0.6
04/12:30pm 12.6 6.9 11.3 92 0.7 WNW 32 46 17 25 1015.1 1015.2 0.6
04/12:00pm 12.3 5.8 11.7 96 0.3 WNW 37 50 20 27 1015.5 1015.6 0.6
04/11:51am 12.0 5.4 11.4 96 0.3 WNW 37 50 20 27 1015.7 1015.8 0.6
04/11:30am 11.9 6.0 11.3 96 0.3 WNW 33 46 18 25 1015.8 1015.9 0.6
04/11:00am 11.7 5.4 10.9 95 0.4 WNW 35 48 19 26 1016.2 1016.3 0.4
04/10:34am 11.7 5.0 10.9 95 0.4 WNW 37 50 20 27 1016.3 1016.4 0.4
04/10:30am 11.7 4.6 10.9 95 0.4 WNW 39 52 21 28 1016.3 1016.4 0.4
04/10:15am 11.6 4.8 10.8 95 0.4 WNW 37 50 20 27 1016.3 1016.4 0.4
04/10:00am 11.4 3.8 10.6 95 0.4 WNW 41 54 22 29 1016.3 1016.4 0.4
04/09:30am 11.6 5.0 9.9 89 0.9 WNW 35 48 19 26 1016.3 1016.4 0.2
04/09:29am 11.6 5.0 9.9 89 0.9 WNW 35 48 19 26 1016.3 1016.4 0.0
04/09:00am 11.6 5.0 9.9 89 0.9 WNW 35 52 19 28 1016.2 1016.3 1.2
04/08:30am 11.0 4.8 10.1 94 0.5 WNW 33 52 18 28 1016.5 1016.6 1.2
04/08:28am 11.0 4.8 10.1 94 0.5 WNW 33 52 18 28 1016.5 1016.6 1.2
04/08:26am 11.0 4.8 10.1 94 0.5 WNW 33 52 18 28 1016.5 1016.6 1.2
04/08:00am 11.1 4.4 9.5 90 0.8 WNW 35 52 19 28 1016.7 1016.8 1.2
04/07:53am 11.3 4.5 9.2 87 1.0 WNW 35 52 19 28 1016.6 1016.7 1.2
04/07:30am 11.5 4.7 9.1 85 1.2 WNW 35 48 19 26 1016.6 1016.7 1.2
04/07:00am 11.4 4.6 9.3 87 1.1 WNW 35 50 19 27 1016.7 1016.8 1.2
04/06:40am 11.0 4.8 9.3 89 0.8 WNW 32 46 17 25 1017.0 1017.1 1.2
04/06:30am 10.7 4.4 9.1 90 0.8 WNW 32 41 17 22 1016.8 1016.9 1.2
04/06:16am 11.0 4.4 8.6 85 1.2 WNW 33 44 18 24 1017.1 1017.2 1.2
04/06:00am 11.4 5.0 8.4 82 1.5 WNW 32 43 17 23 1017.1 1017.2 1.2
04/05:30am 11.4 4.4 8.4 82 1.5 WNW 35 46 19 25 1016.9 1017.0 1.2
04/05:07am 11.3 4.6 8.3 82 1.5 WNW 33 50 18 27 1016.9 1017.0 1.2
04/05:00am 11.4 4.4 8.3 81 1.5 WNW 35 50 19 27 1016.8 1016.9 1.2
04/04:44am 11.4 4.7 8.3 81 1.5 WNW 33 52 18 28 1016.7 1016.8 1.2
04/04:30am 11.3 4.2 8.0 80 1.6 WNW 35 52 19 28 1016.9 1017.0 1.2
04/04:00am 11.2 4.5 8.2 82 1.5 WNW 33 43 18 23 1016.8 1016.9 1.2
04/03:49am 11.0 4.3 8.0 82 1.5 WNW 33 48 18 26 1016.9 1017.0 1.2
04/03:30am 11.1 4.5 7.8 80 1.6 WNW 32 44 17 24 1017.0 1017.1 1.2
04/03:22am 10.8 4.0 7.9 82 1.4 WNW 33 41 18 22 1017.2 1017.3 1.2
04/03:00am 10.6 3.9 8.0 84 1.3 WNW 33 46 18 25 1017.7 1017.8 1.2
04/02:54am 10.6 3.8 7.8 83 1.4 WNW 33 43 18 23 1017.7 1017.8 1.2
04/02:30am 10.5 3.4 7.9 84 1.3 WNW 35 48 19 26 1018.0 1018.0 1.2
04/02:00am 10.4 3.3 8.0 85 1.2 WNW 35 44 19 24 1018.3 1018.3 1.2
04/01:30am 9.9 2.7 7.8 87 1.0 WNW 35 54 19 29 1018.4 1018.4 1.2
04/01:26am 10.5 4.0 8.1 85 1.2 WNW 32 54 17 29 1018.6 1018.6 1.0
04/01:00am 10.3 3.8 8.1 86 1.1 WNW 32 46 17 25 1018.6 1018.6 1.0
04/12:30am 9.9 2.7 7.7 86 1.1 WNW 35 44 19 24 1019.0 1019.0 1.0
04/12:23am 9.9 3.1 7.8 87 1.0 WNW 33 41 18 22 1019.1 1019.1 1.0
04/12:19am 9.9 3.4 8.3 90 0.8 WNW 32 41 17 22 1019.2 1019.2 1.0
04/12:04am 9.7 1.8 8.0 89 0.8 W 39 56 21 30 1019.5 1019.5 1.0
04/12:02am 9.8 2.3 8.1 89 0.8 W 37 56 20 30 1019.6 1019.6 0.8
04/12:00am 9.8 2.3 8.1 89 0.8 W 37 52 20 28 1019.6 1019.6 0.8
 
Date/Time
EST
Temp
°C
App
Temp
°C
Dew
Point
Rel
Hum
%
Delta-T
°C
Wind Press
QNH
hPa
Press
MSL
hPa
Rain
since 9 am
mm
Dir
 
Spd
km/h
Gust
km/h
Spd
kts
Gust
kts
03/11:51pm 10.2 2.7 7.8 85 1.2 W 37 50 20 27 1019.9 1019.9 0.4
03/11:30pm 10.5 3.8 7.4 81 1.5 WNW 32 43 17 23 1019.8 1019.8 0.2
03/11:00pm 10.1 2.0 7.2 82 1.4 WNW 39 54 21 29 1020.2 1020.2 0.2
03/10:32pm 9.9 3.2 7.3 84 1.2 WNW 32 52 17 28 1020.3 1020.3 0.2
03/10:30pm 10.1 3.8 7.3 83 1.3 WNW 30 39 16 21 1020.2 1020.2 0.2
03/10:00pm 9.9 3.7 7.7 86 1.0 WNW 30 44 16 24 1020.4 1020.4 0.2
03/09:30pm 9.7 3.1 5.9 77 1.7 WNW 30 37 16 20 1020.8 1020.8 0.2
03/09:00pm 10.5 2.7 4.9 68 2.5 W 35 50 19 27 1020.9 1020.9 0.2
03/08:30pm 10.2 2.2 3.9 65 2.8 W 35 48 19 26 1021.0 1021.0 0.2
03/08:05pm 9.6 2.5 5.6 76 1.8 W 32 54 17 29 1021.2 1021.2 0.2
03/08:00pm 9.2 2.7 6.6 84 1.2 W 30 37 16 20 1021.2 1021.2 0.2
03/07:45pm 9.7 2.6 6.2 79 1.6 W 33 52 18 28 1021.4 1021.4 0.0
03/07:30pm 9.7 0.8 7.0 83 1.3 W 43 52 23 28 1021.3 1021.3 0.0
03/07:00pm 10.0 1.9 5.4 73 2.1 W 37 46 20 25 1021.4 1021.4 0.0
03/06:52pm 9.9 1.8 5.3 73 2.1 W 37 56 20 30 1021.5 1021.5 0.0
03/06:30pm 10.0 1.3 6.0 76 1.8 W 41 50 22 27 1021.3 1021.3 0.0
03/06:00pm 9.8 1.8 5.8 76 1.8 W 37 46 20 25 1021.4 1021.4 0.0
03/05:30pm 9.8 2.7 6.3 79 1.6 W 33 44 18 24 1021.4 1021.4 0.0
03/05:00pm 9.5 2.5 6.2 80 1.5 W 32 41 17 22 1021.5 1021.5 0.0
03/04:57pm 9.5 2.6 6.6 82 1.4 W 32 41 17 22 1021.5 1021.5 0.0
03/04:38pm 9.8 2.1 6.9 82 1.4 W 37 54 20 29 1021.7 1021.7 0.0
03/04:30pm 9.6 2.1 6.5 81 1.4 W 35 50 19 27 1021.7 1021.7 0.0
03/04:23pm 9.3 2.7 7.6 89 0.8 W 32 46 17 25 1021.7 1021.7 0.0
03/04:06pm 9.1 2.2 7.2 88 0.9 W 33 54 18 29 1021.8 1021.8 0.0
03/04:03pm 9.6 3.7 7.4 86 1.0 W 28 54 15 29 1021.8 1021.8 0.0
03/04:01pm 9.4 3.8 7.2 86 1.0 W 26 35 14 19 1021.8 1021.8 0.0
03/04:00pm 9.3 3.7 7.1 86 1.0 W 26 35 14 19 1021.8 1021.8 0.0
03/03:45pm 9.2 1.9 7.0 86 1.0 W 35 50 19 27 1021.8 1021.8 0.0
03/03:30pm 10.0 3.5 6.3 78 1.7 W 30 37 16 20 1021.9 1021.9 0.0
03/03:00pm 11.3 4.1 5.8 69 2.5 W 33 44 18 24 1021.8 1021.8 0.0
03/02:30pm 10.6 2.8 4.9 68 2.6 WSW 35 46 19 25 1022.0 1022.0 0.0
03/02:00pm 10.8 2.9 4.5 65 2.8 W 35 41 19 22 1022.2 1022.2 0.0
03/01:30pm 10.5 2.4 5.3 70 2.4 WSW 37 44 20 24 1022.5 1022.5 0.0
03/01:00pm 10.8 2.7 5.1 68 2.6 WSW 37 44 20 24 1023.0 1023.0 0.0
03/12:30pm 10.7 2.1 4.8 67 2.7 W 39 48 21 26 1023.4 1023.4 0.0
03/12:00pm 10.6 2.4 4.5 66 2.7 WSW 37 48 20 26 1023.8 1023.8 0.0
03/11:30am 10.6 2.7 4.3 65 2.8 W 35 41 19 22 1024.3 1024.3 0.0
03/11:00am 11.1 3.9 4.8 65 2.8 W 32 41 17 22 1024.6 1024.6 0.0
03/10:30am 10.3 3.7 4.2 66 2.7 W 28 37 15 20 1024.8 1024.8 0.0
03/10:00am 10.3 4.0 4.0 65 2.8 W 26 32 14 17 1024.9 1024.9 0.0
03/09:30am 9.4 5.2 3.8 68 2.4 W 15 20 8 11 1024.9 1024.9 0.0
03/09:00am 8.9 4.3 3.5 69 2.3 WNW 17 26 9 14 1025.0 1025.0 0.2
03/08:30am 5.7 3.1 4.3 91 0.6 NE 7 11 4 6 1025.0 1025.0 0.2
03/08:00am 4.4 2.6 3.2 92 0.5 NE 2 9 1 5 1024.8 1024.8 0.2
03/07:30am 3.4 0.4 2.1 91 0.5 NE 7 9 4 5 1024.7 1024.7 0.2
03/07:00am 3.6 0.2 2.0 89 0.6 ENE 9 11 5 6 1024.6 1024.6 0.2
03/06:30am 4.1 1.3 2.0 86 0.8 ENE 6 9 3 5 1024.4 1024.4 0.2
03/06:00am 4.6 1.3 2.3 85 0.9 NE 9 13 5 7 1024.3 1024.3 0.2
03/05:30am 5.2 0.9 1.3 76 1.5 SW 13 17 7 9 1024.1 1024.1 0.2
03/05:00am 5.8 2.3 1.3 73 1.8 SW 9 13 5 7 1023.8 1023.8 0.2
03/04:30am 8.2 3.5 2.9 69 2.2 SW 17 24 9 13 1023.7 1023.7 0.2
03/04:00am 8.0 3.2 2.5 68 2.3 SW 17 24 9 13 1023.6 1023.6 0.2
03/03:30am 7.7 2.8 2.2 68 2.3 SW 17 22 9 12 1023.6 1023.6 0.2
03/03:00am 8.4 3.5 2.2 65 2.6 SW 17 24 9 13 1023.7 1023.7 0.2
03/02:30am 8.7 3.5 2.5 65 2.6 SW 19 26 10 14 1024.0 1024.0 0.2
03/02:00am 9.0 3.5 1.9 61 2.9 SW 20 26 11 14 1023.9 1023.9 0.2
03/01:30am 9.2 3.0 1.9 60 3.0 SW 24 32 13 17 1023.8 1023.8 0.2
03/01:00am 9.0 2.7 1.7 60 3.0 SW 24 33 13 18 1023.8 1023.8 0.2
03/12:30am 9.2 3.4 2.3 62 2.9 SSW 22 30 12 16 1023.6 1023.6 0.2
03/12:00am 9.3 3.1 2.2 61 3.0 SW 24 32 13 17 1023.7 1023.7 0.2
 
Date/Time
EST
Temp
°C
App
Temp
°C
Dew
Point
Rel
Hum
%
Delta-T
°C
Wind Press
QNH
hPa
Press
MSL
hPa
Rain
since 9 am
mm
Dir
 
Spd
km/h
Gust
km/h
Spd
kts
Gust
kts
02/11:30pm 9.3 2.1 3.1 65 2.7 SW 30 35 16 19 1023.6 1023.6 0.2
02/11:00pm 9.3 2.0 2.6 63 2.8 SSW 30 35 16 19 1023.6 1023.6 0.2
02/10:30pm 9.4 1.3 3.2 65 2.7 SW 35 41 19 22 1023.3 1023.3 0.2
02/10:00pm 9.5 1.6 4.1 69 2.4 SW 35 44 19 24 1023.2 1023.2 0.2
02/09:30pm 9.6 1.3 4.0 68 2.5 SW 37 43 20 23 1023.0 1023.0 0.2
02/09:00pm 9.4 1.4 3.8 68 2.4 SW 35 44 19 24 1022.7 1022.7 0.2
02/08:30pm 9.5 1.4 3.5 66 2.6 SW 35 44 19 24 1022.5 1022.5 0.2
02/08:00pm 9.8 1.1 4.2 68 2.5 SW 39 50 21 27 1022.2 1022.2 0.2
02/07:30pm 9.5 1.1 3.9 68 2.5 SW 37 48 20 26 1021.7 1021.7 0.2
02/07:00pm 9.4 0.7 4.2 70 2.3 WSW 39 50 21 27 1021.4 1021.4 0.2
02/06:30pm 9.7 0.9 3.7 66 2.6 WSW 39 48 21 26 1021.1 1021.1 0.2
02/06:00pm 9.6 1.2 3.6 66 2.6 WSW 37 48 20 26 1020.5 1020.5 0.2
02/05:30pm 9.7 0.9 3.7 66 2.6 WSW 39 50 21 27 1020.1 1020.1 0.2
02/05:00pm 9.8 0.7 4.0 67 2.5 WSW 41 54 22 29 1019.6 1019.6 0.2
02/04:30pm 10.0 1.7 4.0 66 2.6 SW 37 48 20 26 1019.3 1019.3 0.2

Other Formats:

Comma delimited format used in spreadsheet applications
http://www.bom.gov.au/fwo/IDT60801/IDT60801.94980.axf

JavaScript Object Notation format (JSON) in row-major order
http://www.bom.gov.au/fwo/IDT60801/IDT60801.94980.json